Terminal Aerodrome Forecast
Issued by NWS

Home | Current Version | Previous Version | Text Only | Print | Product List | Glossary On
Versions: 1 2 3 4 5 6 7 8 9 10 11 12 13 14
474
FTUS45 KTFX 250634 AAA
TAFGTF
TAF AMD
KGTF 250634Z 2507/2606 22016KT P6SM SCT090 BKN150
     FM252000 24018G26KT P6SM SCT050 BKN080=

USA.gov is the U.S. government's official web portal to all federal, state and local government web resources and services.